Terminal Aerodrome Forecast
Issued by NWS Chicago, IL

Home | Current Version | Previous Version | Graphics & Text | Print | Product List | Glossary On
Versions: 1 2 3 4 5 6 7 8 9 10 11 12 13 14 15 16 17 18 19 20 21 22 23 24 25 26 27 28 29 30
220
FTUS43 KLOT 171502 AAA
TAFRFD
TAF AMD
KRFD 171502Z 1715/1812 16016G25KT P6SM SCT015 BKN045
     FM171900 17015G23KT 6SM -SHRA BKN015 OVC025
     FM172300 18012G18KT 3SM -RA OVC007
     FM180300 19012KT 1 1/2SM -DZ BR OVC004
     FM180900 36010KT 2SM -DZ BR OVC004=

USA.gov is the U.S. government's official web portal to all federal, state and local government web resources and services.